Time;durP1;ratioP1;P1;durP2;ratioP2;P2;SDS_P1;SDS_P2;PMS_P1;PMS_P2;Temp;Humidity;BMP_temperature;BMP_pressure;BME280_temperature;BME280_humidity;BME280_pressure;Samples;Min_cycle;Max_cycle;Signal;HPM_P1;HPM_P2
2022/08/14 00:01:01;;;;;;;0.60;0.60;;;;;;;20.87;34.93;99807.56;5014353;28;20101;-72
2022/08/14 00:03:30;;;;;;;0.50;0.50;;;;;;;20.81;35.70;99799.81;4998721;28;20041;-73
2022/08/14 00:05:57;;;;;;;0.60;0.60;;;;;;;20.83;35.42;99803.06;5008487;28;20045;-74
2022/08/14 00:08:22;;;;;;;0.85;0.60;;;;;;;20.82;35.58;99804.22;4999431;28;20026;-74
2022/08/14 00:10:49;;;;;;;0.65;0.63;;;;;;;20.73;35.24;99794.06;5019998;28;20065;-74
2022/08/14 00:13:16;;;;;;;0.75;0.75;;;;;;;20.70;35.47;99789.19;5024046;28;20055;-73
2022/08/14 00:15:45;;;;;;;1.27;1.05;;;;;;;20.66;35.75;99793.84;4986631;28;20102;-74
2022/08/14 00:18:21;;;;;;;0.95;0.85;;;;;;;20.61;36.34;99790.47;5008064;28;20064;-73
2022/08/14 00:21:02;;;;;;;0.95;0.70;;;;;;;20.53;36.04;99792.19;5016390;28;20074;-75
2022/08/14 00:23:27;;;;;;;0.70;0.70;;;;;;;20.37;36.27;99770.69;4991314;28;20446;-74
2022/08/14 00:26:23;;;;;;;;;;;;;;;;;;;;;
2022/08/14 00:29:18;;;;;;;0.80;0.70;;;;;;;20.22;36.48;99763.88;5018132;28;20062;-74
2022/08/14 00:32:19;;;;;;;;;;;;;;;;;;;;;
2022/08/14 00:35:04;;;;;;;;;;;;;;;;;;;;;
2022/08/14 00:37:36;;;;;;;1.80;0.52;;;;;;;19.96;36.79;99755.06;5012615;28;20082;-74
2022/08/14 00:40:25;;;;;;;0.57;0.40;;;;;;;20.16;37.05;99781.09;5018147;28;20067;-74
2022/08/14 00:43:17;;;;;;;0.40;0.40;;;;;;;20.10;36.32;99782.50;5000340;28;20044;-74
2022/08/14 00:45:54;;;;;;;0.40;0.40;;;;;;;19.98;37.11;99761.91;5002761;28;20041;-75
2022/08/14 00:48:25;;;;;;;0.75;0.65;;;;;;;19.81;36.72;99737.16;5006876;28;20089;-75
2022/08/14 00:50:53;;;;;;;1.52;0.70;;;;;;;19.94;37.22;99758.19;5017677;28;20025;-74
2022/08/14 00:53:35;;;;;;;;;;;;;;;;;;;;;
2022/08/14 00:59:40;;;;;;;0.70;0.70;;;;;;;19.70;37.73;99732.03;5017721;28;20034;-76
2022/08/14 01:02:09;;;;;;;1.33;1.02;;;;;;;19.99;37.60;99769.06;5005786;28;20018;-75
2022/08/14 01:04:35;;;;;;;1.65;0.98;;;;;;;19.94;37.14;99762.94;5000867;28;20065;-74
2022/08/14 01:07:06;;;;;;;1.42;0.60;;;;;;;19.90;37.78;99768.34;5017009;28;20021;-74
2022/08/14 01:12:37;;;;;;;1.55;0.98;;;;;;;19.56;37.90;99716.88;4999480;28;20067;-74
2022/08/14 01:21:08;;;;;;;1.10;0.80;;;;;;;19.76;38.18;99737.34;5021105;28;20178;-75
2022/08/14 01:24:24;;;;;;;0.70;0.70;;;;;;;19.69;37.89;99735.13;5002640;28;20045;-74
2022/08/14 01:27:21;;;;;;;;;;;;;;;;;;;;;
2022/08/14 01:30:37;;;;;;;1.35;0.90;;;;;;;19.47;38.01;99698.34;5017724;28;20091;-76
2022/08/14 01:33:20;;;;;;;1.00;0.70;;;;;;;19.57;38.20;99713.75;4978449;28;20121;-75
2022/08/14 01:35:57;;;;;;;0.75;0.70;;;;;;;19.42;38.41;99686.69;4983707;28;20038;-75
2022/08/14 01:38:34;;;;;;;0.90;0.90;;;;;;;19.61;38.37;99727.72;5019923;28;20100;-74
2022/08/14 01:41:01;;;;;;;2.33;0.80;;;;;;;19.49;38.33;99714.66;5016625;28;20096;-73
2022/08/14 01:43:34;;;;;;;1.10;1.00;;;;;;;19.53;38.75;99718.34;5003519;28;20054;-73
2022/08/14 01:46:05;;;;;;;1.60;1.10;;;;;;;19.36;38.96;99688.84;5024875;28;20034;-74
2022/08/14 01:48:33;;;;;;;1.73;1.00;;;;;;;19.36;39.04;99686.91;4992419;28;20041;-73
2022/08/14 01:51:02;;;;;;;1.63;1.00;;;;;;;19.27;38.63;99674.28;5003767;28;20037;-74
2022/08/14 01:53:30;;;;;;;1.70;1.02;;;;;;;19.38;38.94;99686.56;4991653;28;20109;-74
2022/08/14 01:56:03;;;;;;;1.20;1.08;;;;;;;19.31;39.01;99681.56;4998965;28;20045;-74
2022/08/14 01:58:29;;;;;;;1.58;1.10;;;;;;;19.31;39.40;99681.56;5002069;28;20026;-75
2022/08/14 02:00:57;;;;;;;1.13;0.90;;;;;;;19.26;38.89;99672.66;5020072;28;20053;-75
2022/08/14 02:03:29;;;;;;;1.17;0.88;;;;;;;19.34;39.56;99674.53;5020000;28;20034;-76
2022/08/14 02:06:12;;;;;;;;;;;;;;;;;;;;;
2022/08/14 02:08:40;;;;;;;2.80;1.30;;;;;;;19.39;39.43;99684.59;5022708;28;20085;-75
2022/08/14 02:11:28;;;;;;;1.30;0.90;;;;;;;19.30;39.40;99677.19;5023381;28;20271;-75
2022/08/14 02:14:03;;;;;;;1.10;0.98;;;;;;;19.29;39.62;99681.13;5037928;28;20044;-74
2022/08/14 02:16:32;;;;;;;1.15;0.98;;;;;;;19.15;39.30;99666.75;5041116;28;20021;-75
2022/08/14 02:19:01;;;;;;;0.82;0.80;;;;;;;19.17;39.49;99675.53;5034982;28;20018;-76
2022/08/14 02:21:31;;;;;;;0.75;0.60;;;;;;;19.04;39.66;99666.41;5028245;28;20116;-74
2022/08/14 02:24:08;;;;;;;1.52;0.98;;;;;;;19.11;39.79;99679.66;5037010;28;20159;-76
2022/08/14 02:26:38;;;;;;;2.63;0.73;;;;;;;18.97;39.70;99672.47;5038487;28;20022;-75
2022/08/14 02:29:07;;;;;;;1.20;0.90;;;;;;;18.95;39.85;99669.25;5037608;28;20032;-75
2022/08/14 02:31:45;;;;;;;;;;;;;;;;;;;;;
2022/08/14 02:34:28;;;;;;;1.35;0.70;;;;;;;18.91;40.08;99679.38;5038669;28;20027;-76
2022/08/14 02:36:58;;;;;;;0.80;0.60;;;;;;;18.82;40.47;99675.84;5036445;28;20022;-74
2022/08/14 02:39:26;;;;;;;1.10;0.68;;;;;;;18.83;40.10;99677.47;5039026;28;20025;-72
2022/08/14 02:41:51;;;;;;;1.02;0.50;;;;;;;18.80;40.13;99675.38;5017546;28;20029;-73
2022/08/14 02:44:20;;;;;;;0.68;0.57;;;;;;;18.76;40.39;99680.81;5001600;28;20490;-75
2022/08/14 02:46:46;;;;;;;0.43;0.43;;;;;;;18.73;40.46;99680.66;5036795;28;20049;-74
2022/08/14 02:49:11;;;;;;;0.70;0.70;;;;;;;18.64;40.43;99667.69;5034828;28;20036;-76
2022/08/14 02:51:37;;;;;;;0.40;0.40;;;;;;;18.67;40.53;99680.03;5002790;28;20025;-73
2022/08/14 02:54:06;;;;;;;0.60;0.50;;;;;;;18.64;40.44;99687.06;5038606;28;20831;-74
2022/08/14 02:56:32;;;;;;;0.70;0.40;;;;;;;18.55;40.61;99672.50;5036978;28;20118;-74
2022/08/14 02:59:00;;;;;;;1.25;0.85;;;;;;;18.58;40.73;99687.63;5031592;28;20029;-74
2022/08/14 03:01:27;;;;;;;1.10;0.80;;;;;;;18.56;41.15;99684.38;5044544;28;20039;-74
2022/08/14 03:03:54;;;;;;;1.40;0.90;;;;;;;18.54;41.27;99676.41;5039529;28;20026;-73
2022/08/14 03:06:22;;;;;;;1.13;1.00;;;;;;;18.54;41.25;99676.41;4993620;28;20491;-73
2022/08/14 03:08:48;;;;;;;1.17;1.00;;;;;;;18.55;41.31;99683.56;5021113;28;20018;-75
2022/08/14 03:11:14;;;;;;;1.10;0.98;;;;;;;18.51;41.74;99677.06;5019793;28;20092;-74
2022/08/14 03:13:44;;;;;;;0.95;0.90;;;;;;;18.48;41.61;99672.22;5017894;28;20033;-74
2022/08/14 03:16:15;;;;;;;0.98;0.90;;;;;;;18.41;41.59;99666.41;5018292;28;20571;-73
2022/08/14 03:18:43;;;;;;;0.85;0.80;;;;;;;18.43;41.69;99669.66;5019596;28;20514;-73
2022/08/14 03:21:17;;;;;;;1.30;0.90;;;;;;;18.39;41.67;99666.75;5017696;28;20052;-74
2022/08/14 03:23:48;;;;;;;0.80;0.80;;;;;;;18.39;41.87;99671.50;4986292;28;20038;-73
2022/08/14 03:26:18;;;;;;;1.13;0.93;;;;;;;18.34;41.84;99666.13;5020388;28;20048;-75
2022/08/14 03:28:51;;;;;;;1.35;0.90;;;;;;;18.28;42.13;99658.06;5000905;28;20037;-76
2022/08/14 03:31:22;;;;;;;1.58;1.20;;;;;;;18.32;42.40;99666.47;4998852;28;20029;-74
2022/08/14 03:33:50;;;;;;;1.45;1.13;;;;;;;18.29;42.62;99659.66;4999651;28;20510;-74
2022/08/14 03:36:18;;;;;;;0.88;0.85;;;;;;;18.26;42.68;99660.31;5002322;28;20030;-76
2022/08/14 03:38:46;;;;;;;1.20;1.10;;;;;;;18.22;42.68;99664.91;5012525;28;20050;-73
2022/08/14 03:41:18;;;;;;;1.70;1.08;;;;;;;18.16;42.51;99663.50;5021963;28;20027;-73
2022/08/14 03:43:45;;;;;;;3.33;1.08;;;;;;;18.12;42.84;99665.31;4995327;28;20037;-72
2022/08/14 03:46:12;;;;;;;3.03;0.70;;;;;;;18.05;42.66;99662.28;5022172;28;20109;-75
2022/08/14 03:48:39;;;;;;;0.85;0.70;;;;;;;17.98;42.72;99659.22;4986183;28;20506;-73
2022/08/14 03:51:07;;;;;;;1.02;0.77;;;;;;;17.93;42.85;99666.56;5019191;28;20029;-73
2022/08/14 03:53:36;;;;;;;1.10;0.90;;;;;;;17.89;43.42;99660.06;5014206;28;20069;-74
2022/08/14 03:56:06;;;;;;;0.70;0.70;;;;;;;17.87;42.97;99659.59;5000606;28;20124;-74
2022/08/14 03:58:32;;;;;;;0.75;0.75;;;;;;;17.83;42.92;99658.63;5026738;28;20030;-75
2022/08/14 04:00:59;;;;;;;0.90;0.70;;;;;;;17.79;43.53;99652.13;5019378;28;20053;-74
2022/08/14 04:03:25;;;;;;;0.80;0.70;;;;;;;17.78;42.93;99667.09;5024655;28;20044;-73
2022/08/14 04:05:54;;;;;;;0.63;0.52;;;;;;;17.72;43.28;99654.63;5022121;28;20108;-74
2022/08/14 04:08:20;;;;;;;0.60;0.55;;;;;;;17.68;43.33;99659.19;5018295;28;20045;-75
2022/08/14 04:10:46;;;;;;;1.27;0.50;;;;;;;17.63;43.39;99660.97;5011215;28;20056;-73
2022/08/14 04:13:16;;;;;;;0.80;0.80;;;;;;;17.64;43.52;99656.28;4996790;28;20045;-74
2022/08/14 04:15:46;;;;;;;0.85;0.77;;;;;;;17.64;43.55;99648.00;5033566;28;20079;-74
2022/08/14 04:18:22;;;;;;;1.48;1.10;;;;;;;17.54;43.92;99624.28;5038923;28;20025;-73
2022/08/14 04:20:48;;;;;;;3.13;1.30;;;;;;;17.63;44.58;99627.81;5037528;28;20025;-73
2022/08/14 04:23:15;;;;;;;1.88;1.23;;;;;;;17.62;44.30;99625.38;5039284;28;20054;-73
2022/08/14 04:25:46;;;;;;;1.88;1.30;;;;;;;17.60;44.86;99617.41;5038331;28;20056;-73
2022/08/14 04:28:13;;;;;;;2.10;1.48;;;;;;;17.68;44.86;99628.75;5016549;28;20017;-74
2022/08/14 04:30:39;;;;;;;1.65;1.30;;;;;;;17.61;44.59;99621.81;5034316;28;20029;-73
2022/08/14 04:33:07;;;;;;;1.80;1.23;;;;;;;17.54;44.85;99613.22;5003653;28;20017;-73
2022/08/14 04:35:35;;;;;;;1.27;1.10;;;;;;;17.49;45.07;99605.09;5038734;28;20013;-74
2022/08/14 04:43:40;;;;;;;1.40;1.20;;;;;;;17.45;45.52;99598.66;5040669;28;20040;-74
2022/08/14 04:46:24;;;;;;;1.98;1.65;;;;;;;17.49;45.21;99605.09;5039230;28;20456;-74
2022/08/14 04:48:50;;;;;;;;;;;;;;;17.51;45.99;99607.53;5033447;28;20099;-76
2022/08/14 04:51:19;;;;;;;2.00;1.45;;;;;;;17.51;45.99;99602.84;5037381;28;19917;-75
2022/08/14 04:53:46;;;;;;;5.35;1.67;;;;;;;17.52;45.99;99598.13;5037141;28;20143;-74
2022/08/14 04:56:16;;;;;;;2.83;1.40;;;;;;;17.45;46.24;99598.66;5021580;28;20032;-74
2022/08/14 04:58:42;;;;;;;2.80;1.70;;;;;;;17.43;46.35;99589.88;5041074;28;20021;-74
2022/08/14 05:01:09;;;;;;;2.55;1.50;;;;;;;17.43;46.33;99600.91;5043655;28;20074;-74
2022/08/14 05:03:36;;;;;;;2.42;1.52;;;;;;;17.41;46.64;99592.97;5022438;28;20074;-75
2022/08/14 05:06:06;;;;;;;1.98;1.45;;;;;;;17.42;46.65;99602.06;5031897;28;20152;-75
2022/08/14 05:08:32;;;;;;;2.72;1.85;;;;;;;17.39;46.45;99599.97;5003948;28;20040;-75
2022/08/14 05:11:00;;;;;;;3.35;1.60;;;;;;;17.41;46.64;99597.69;5037062;28;20029;-75
2022/08/14 05:13:28;;;;;;;2.17;1.60;;;;;;;17.38;46.72;99595.59;5020901;28;20045;-74
2022/08/14 05:15:56;;;;;;;2.08;1.30;;;;;;;17.44;46.37;99599.78;5006094;28;20025;-75
2022/08/14 05:18:24;;;;;;;6.05;1.40;;;;;;;17.45;46.68;99595.88;5039821;28;20026;-76
2022/08/14 05:20:51;;;;;;;3.58;1.60;;;;;;;17.49;46.81;99604.31;5036920;28;20040;-72
2022/08/14 05:23:28;;;;;;;1.80;1.60;;;;;;;17.54;46.80;99602.16;5019764;28;20173;-74
2022/08/14 05:26:11;;;;;;;2.42;1.67;;;;;;;17.57;46.40;99595.19;5036482;28;20032;-74
2022/08/14 05:28:40;;;;;;;5.20;1.70;;;;;;;17.61;46.60;99596.94;5037999;28;20071;-75
2022/08/14 05:31:06;;;;;;;1.42;1.00;;;;;;;17.69;46.31;99597.22;5027334;28;20056;-76
2022/08/14 05:33:33;;;;;;;1.52;1.13;;;;;;;17.68;46.53;99587.28;5033578;28;20087;-74
2022/08/14 05:36:11;;;;;;;;;;;;;;;;;;;;;
2022/08/14 05:38:43;;;;;;;1.88;1.30;;;;;;;17.71;46.29;99578.34;5036557;28;20036;-74
2022/08/14 05:41:17;;;;;;;2.42;1.60;;;;;;;17.85;46.38;99589.16;5016874;28;20494;-73
2022/08/14 05:43:43;;;;;;;1.05;0.95;;;;;;;17.93;45.98;99591.91;5035948;28;20060;-73
2022/08/14 05:46:11;;;;;;;2.00;1.15;;;;;;;17.89;45.73;99571.56;5032042;28;20036;-73
2022/08/14 05:48:38;;;;;;;3.53;1.40;;;;;;;18.08;45.82;99581.38;5038532;28;20080;-74
2022/08/14 05:51:21;;;;;;;1.92;1.30;;;;;;;18.13;45.50;99583.94;5019998;28;20032;-75
2022/08/14 05:53:47;;;;;;;2.10;1.45;;;;;;;18.29;45.25;99582.16;5016307;28;20029;-72
2022/08/14 05:56:13;;;;;;;1.77;1.13;;;;;;;18.48;45.25;99589.19;5010817;28;20025;-73
2022/08/14 05:58:39;;;;;;;2.60;1.23;;;;;;;18.61;44.92;99582.53;5013121;28;20030;-72
2022/08/14 06:01:05;;;;;;;2.00;1.20;;;;;;;18.84;44.75;99594.03;5037611;28;20929;-75
2022/08/14 06:03:38;;;;;;;4.03;1.33;;;;;;;18.97;44.51;99589.38;5034533;28;20296;-75
2022/08/14 06:06:03;;;;;;;2.75;1.42;;;;;;;19.10;44.21;99586.59;5026586;28;20112;-73
2022/08/14 06:08:31;;;;;;;3.03;1.42;;;;;;;19.32;44.18;99600.03;5029663;28;20064;-73
2022/08/14 06:11:02;;;;;;;1.98;1.10;;;;;;;19.39;43.95;99590.34;5018276;28;20033;-75
2022/08/14 06:14:16;;;;;;;1.50;1.08;;;;;;;19.53;43.80;99602.69;5031752;28;20056;-74
2022/08/14 06:16:46;;;;;;;1.42;1.10;;;;;;;19.59;43.65;99591.38;5029192;28;20073;-74
2022/08/14 06:19:11;;;;;;;2.25;1.50;;;;;;;19.81;43.30;99604.00;5005941;28;20081;-71
2022/08/14 06:21:37;;;;;;;1.70;1.48;;;;;;;19.90;43.21;99601.91;5012078;28;20139;-73
2022/08/14 06:24:02;;;;;;;1.50;1.40;;;;;;;20.08;43.12;99609.97;5013486;28;20025;-72
2022/08/14 06:26:28;;;;;;;1.27;1.10;;;;;;;20.17;43.05;99617.00;5029394;28;20112;-73
2022/08/14 06:28:53;;;;;;;2.83;1.50;;;;;;;20.27;43.11;99615.72;5034728;28;20026;-74
2022/08/14 06:31:20;;;;;;;1.80;1.20;;;;;;;20.36;43.10;99612.78;4994549;28;20038;-71
2022/08/14 06:33:48;;;;;;;1.60;1.30;;;;;;;20.43;43.25;99606.63;5030249;28;20037;-72
2022/08/14 06:36:17;;;;;;;1.88;1.40;;;;;;;20.58;42.90;99614.22;5016962;28;20688;-73
2022/08/14 06:38:43;;;;;;;1.58;1.20;;;;;;;20.72;42.58;99617.44;5016060;28;20025;-72
2022/08/14 06:41:08;;;;;;;2.38;1.40;;;;;;;20.82;42.58;99612.50;5017100;28;20025;-74
2022/08/14 06:43:33;;;;;;;2.53;1.60;;;;;;;20.96;42.70;99612.91;4997751;28;20033;-74
2022/08/14 06:45:59;;;;;;;1.70;1.33;;;;;;;21.05;42.62;99616.31;5037979;28;20101;-75
2022/08/14 06:48:25;;;;;;;1.77;1.33;;;;;;;21.14;42.71;99612.56;5007949;28;20044;-74
2022/08/14 06:50:52;;;;;;;1.67;1.27;;;;;;;21.26;42.28;99604.97;5002487;28;20025;-70
2022/08/14 06:53:18;;;;;;;3.13;1.33;;;;;;;21.39;42.43;99605.69;5015933;28;20124;-70
2022/08/14 06:55:49;;;;;;;5.00;1.05;;;;;;;21.50;42.06;99602.34;5002479;28;20608;-75
2022/08/14 06:58:17;;;;;;;2.35;1.42;;;;;;;21.65;42.00;99609.91;5019476;28;20029;-73
2022/08/14 07:06:14;;;;;;;2.78;1.33;;;;;;;22.09;41.58;99601.38;5033362;28;20083;-74
2022/08/14 07:08:42;;;;;;;1.42;1.25;;;;;;;22.19;41.45;99593.63;5015675;28;20029;-75
2022/08/14 07:11:08;;;;;;;4.20;1.70;;;;;;;22.35;41.39;99590.81;5016527;28;20068;-73
2022/08/14 07:13:33;;;;;;;2.03;1.38;;;;;;;22.47;41.31;99602.59;5018693;28;20048;-74
2022/08/14 07:16:02;;;;;;;4.60;1.40;;;;;;;22.56;41.07;99590.41;5016880;28;20038;-74
2022/08/14 07:18:30;;;;;;;2.45;1.60;;;;;;;22.71;40.75;99589.53;5034259;28;20083;-75
2022/08/14 07:20:58;;;;;;;1.75;1.48;;;;;;;22.84;40.96;99590.97;5032309;28;20036;-74
2022/08/14 07:23:24;;;;;;;1.33;1.20;;;;;;;22.98;40.43;99589.63;5033431;28;20075;-74
2022/08/14 07:25:52;;;;;;;1.23;1.00;;;;;;;23.12;40.19;99584.34;5016325;28;20040;-74
2022/08/14 07:28:24;;;;;;;1.63;1.10;;;;;;;23.29;39.98;99588.63;5035212;28;20066;-72
2022/08/14 07:30:51;;;;;;;1.83;1.10;;;;;;;23.45;39.98;99585.69;5029059;28;20052;-74
2022/08/14 07:33:16;;;;;;;1.25;1.08;;;;;;;23.59;39.69;99581.50;5043824;28;20029;-74
2022/08/14 07:35:42;;;;;;;1.65;1.40;;;;;;;23.77;39.55;99587.34;5031910;28;20025;-74
2022/08/14 07:38:15;;;;;;;4.72;1.42;;;;;;;23.87;39.06;99584.78;5028219;28;20100;-74
2022/08/14 07:40:40;;;;;;;2.45;1.63;;;;;;;24.05;38.90;99582.22;5022496;28;20064;-74
2022/08/14 07:43:06;;;;;;;3.47;1.10;;;;;;;24.18;38.70;99579.19;5008800;28;20116;-74
2022/08/14 07:45:32;;;;;;;1.40;1.30;;;;;;;24.31;38.47;99588.13;5032703;28;20056;-74
2022/08/14 07:47:57;;;;;;;1.50;1.10;;;;;;;24.37;38.56;99572.63;5026205;28;20467;-74
2022/08/14 07:50:23;;;;;;;1.98;1.48;;;;;;;24.52;38.28;99573.63;5040712;28;20048;-72
2022/08/14 07:52:49;;;;;;;2.25;1.25;;;;;;;24.67;38.06;99580.22;5016509;28;20030;-75
2022/08/14 07:55:16;;;;;;;2.20;1.55;;;;;;;24.77;37.88;99582.31;5045290;28;20437;-73
2022/08/14 07:57:43;;;;;;;3.97;1.83;;;;;;;24.84;37.88;99574.00;5029646;28;20091;-73
2022/08/14 08:00:19;;;;;;;1.80;1.30;;;;;;;24.94;37.68;99569.72;5024426;28;20104;-74
2022/08/14 08:02:49;;;;;;;2.13;1.20;;;;;;;25.08;37.64;99571.81;5031192;28;20044;-74
2022/08/14 08:05:15;;;;;;;3.67;1.70;;;;;;;25.20;37.57;99568.75;5039731;28;20127;-73
2022/08/14 08:07:43;;;;;;;3.30;1.45;;;;;;;25.38;37.59;99570.94;5025188;28;20083;-76
2022/08/14 08:12:59;;;;;;;1.70;1.23;;;;;;;25.72;36.69;99565.16;5031595;28;20107;-74
2022/08/14 08:15:26;;;;;;;1.40;1.23;;;;;;;25.86;36.31;99559.66;5040309;28;20025;-75
2022/08/14 08:17:53;;;;;;;2.13;1.30;;;;;;;26.00;36.13;99547.75;5014794;28;20034;-74
2022/08/14 08:20:27;;;;;;;1.95;1.20;;;;;;;26.12;35.57;99543.81;5032663;28;20033;-73
2022/08/14 08:22:55;;;;;;;1.90;1.27;;;;;;;26.27;35.48;99542.69;5016913;28;20025;-76
2022/08/14 08:25:22;;;;;;;1.65;1.20;;;;;;;26.46;35.49;99549.94;5019528;28;20113;-74
2022/08/14 08:27:58;;;;;;;2.05;1.10;;;;;;;26.64;35.07;99546.38;5034062;28;20026;-74
2022/08/14 08:30:25;;;;;;;2.13;1.15;;;;;;;26.74;34.47;99533.63;5034820;28;20052;-75
2022/08/14 08:32:52;;;;;;;1.83;1.25;;;;;;;26.85;34.64;99530.84;5043686;28;20422;-76
2022/08/14 08:35:24;;;;;;;1.40;1.30;;;;;;;26.96;34.24;99528.84;5034310;28;20171;-74
2022/08/14 08:37:51;;;;;;;7.65;1.08;;;;;;;27.11;34.09;99526.84;5028491;28;20447;-73
2022/08/14 08:40:47;;;;;;;1.02;0.98;;;;;;;27.23;33.58;99515.19;5033096;28;20097;-75
2022/08/14 08:43:19;;;;;;;1.30;1.10;;;;;;;27.40;33.59;99519.25;5012852;28;20450;-74
2022/08/14 08:45:53;;;;;;;2.45;1.20;;;;;;;27.50;33.37;99524.03;5031448;28;20037;-74
2022/08/14 08:48:18;;;;;;;2.08;1.42;;;;;;;27.61;32.68;99518.41;5032834;28;20017;-73
2022/08/14 08:50:44;;;;;;;3.65;1.20;;;;;;;27.75;32.32;99522.41;5016048;28;20030;-73
2022/08/14 08:53:10;;;;;;;1.35;0.98;;;;;;;27.87;31.93;99527.56;5019054;28;20032;-74
2022/08/14 08:55:41;;;;;;;1.70;1.10;;;;;;;28.09;32.08;99525.50;5036023;28;20038;-74
2022/08/14 08:58:10;;;;;;;1.48;1.20;;;;;;;28.30;31.47;99519.00;5018973;28;20041;-74
2022/08/14 09:00:39;;;;;;;4.28;1.30;;;;;;;28.55;31.11;99529.31;5016024;28;20495;-72
2022/08/14 09:03:10;;;;;;;1.63;0.70;;;;;;;28.85;30.91;99520.28;5032971;28;20029;-75
2022/08/14 09:05:38;;;;;;;1.63;1.00;;;;;;;29.16;30.55;99522.47;5019519;28;20032;-74
2022/08/14 09:08:17;;;;;;;5.13;1.13;;;;;;;29.41;29.66;99525.91;5020826;28;20075;-73
2022/08/14 09:10:43;;;;;;;3.55;1.40;;;;;;;29.56;29.39;99517.31;5020097;28;20391;-75
2022/08/14 09:13:12;;;;;;;1.25;1.13;;;;;;;29.87;29.20;99515.38;4986929;28;20065;-76
2022/08/14 09:15:40;;;;;;;1.52;1.10;;;;;;;30.16;28.84;99515.03;5017160;28;20026;-74
2022/08/14 09:18:06;;;;;;;2.30;1.23;;;;;;;30.42;28.32;99510.69;5029907;28;20383;-72
2022/08/14 09:20:32;;;;;;;1.33;1.00;;;;;;;30.68;27.92;99511.13;5017559;28;20115;-74
2022/08/14 09:22:58;;;;;;;1.05;0.80;;;;;;;31.00;27.85;99514.69;5016806;28;20103;-72
2022/08/14 09:25:23;;;;;;;1.25;0.90;;;;;;;31.44;26.95;99507.88;5034388;28;20029;-73
2022/08/14 09:27:49;;;;;;;2.83;1.17;;;;;;;33.45;24.91;99523.75;5023293;28;20030;-73
2022/08/14 09:30:14;;;;;;;1.35;1.00;;;;;;;36.60;21.52;99525.31;5010492;28;20484;-74
2022/08/14 09:32:55;;;;;;;1.17;0.90;;;;;;;39.78;17.87;99520.94;5033853;28;20103;-74
2022/08/14 09:35:43;;;;;;;2.88;0.80;;;;;;;42.49;15.48;99526.00;5019882;28;20029;-73
2022/08/14 09:38:36;;;;;;;0.60;0.60;;;;;;;45.53;13.72;99520.59;4995241;28;20132;-74
2022/08/14 09:41:36;;;;;;;0.98;0.80;;;;;;;47.65;12.37;99516.84;5018609;28;20040;-74
2022/08/14 09:44:16;;;;;;;1.10;0.70;;;;;;;49.24;11.20;99512.06;5032302;28;20113;-74
2022/08/14 09:46:54;;;;;;;0.65;0.65;;;;;;;50.70;10.59;99497.50;5019039;28;20051;-75
2022/08/14 09:49:34;;;;;;;1.05;0.77;;;;;;;52.58;9.26;99512.91;5028932;28;20021;-78
2022/08/14 09:52:11;;;;;;;5.25;0.63;;;;;;;54.13;8.36;99505.13;5014727;28;20088;-75
2022/08/14 09:54:44;;;;;;;0.50;0.50;;;;;;;55.14;7.94;99507.88;5015299;28;20064;-75
2022/08/14 09:57:13;;;;;;;1.15;0.60;;;;;;;55.87;7.38;99502.81;5019428;28;20030;-74
2022/08/14 09:59:44;;;;;;;0.30;0.30;;;;;;;56.86;6.86;99496.66;5014510;28;20105;-75
2022/08/14 10:02:36;;;;;;;0.30;0.30;;;;;;;58.17;6.53;99493.00;5017587;28;20029;-74
2022/08/14 10:05:11;;;;;;;3.25;0.85;;;;;;;59.24;5.33;99488.53;5009637;28;20837;-74
2022/08/14 10:07:49;;;;;;;0.60;0.50;;;;;;;59.68;4.65;99486.22;5030857;28;20026;-74
2022/08/14 10:10:44;;;;;;;0.73;0.50;;;;;;;60.32;4.72;99490.22;5010609;28;20116;-74
2022/08/14 10:13:24;;;;;;;0.30;0.30;;;;;;;61.23;4.33;99484.56;5034126;28;20071;-74
2022/08/14 10:15:57;;;;;;;1.77;0.43;;;;;;;60.59;3.88;99466.06;5035864;28;20032;-74
2022/08/14 10:18:25;;;;;;;;;;;;;;;60.45;4.10;99468.13;5034651;28;20032;-75
2022/08/14 10:21:00;;;;;;;0.60;0.50;;;;;;;60.81;3.78;99465.84;5034148;28;20609;-76
2022/08/14 10:23:28;;;;;;;1.10;1.00;;;;;;;60.23;3.89;99450.59;5039843;28;20055;-75
2022/08/14 10:26:04;;;;;;;1.02;0.60;;;;;;;60.63;3.74;99463.34;5037446;28;20040;-77
2022/08/14 10:28:41;;;;;;;0.93;0.40;;;;;;;60.67;3.67;99460.63;5025524;28;20030;-75
2022/08/14 10:31:28;;;;;;;0.55;0.40;;;;;;;60.67;3.05;99448.84;5035465;28;20037;-74
2022/08/14 10:34:00;;;;;;;0.57;0.40;;;;;;;60.19;3.07;99447.38;5035818;28;20026;-74
2022/08/14 10:36:31;;;;;;;0.80;0.40;;;;;;;58.85;3.20;99447.66;5037944;28;20089;-76
2022/08/14 10:38:59;;;;;;;0.40;0.38;;;;;;;57.10;3.36;99432.38;5034331;28;20033;-74
2022/08/14 10:41:35;;;;;;;0.95;0.40;;;;;;;56.86;3.35;99432.06;5017440;28;20068;-75
2022/08/14 10:44:13;;;;;;;0.45;0.30;;;;;;;57.18;3.84;99435.91;5033420;28;20092;-75
2022/08/14 10:46:57;;;;;;;1.17;0.30;;;;;;;56.41;3.80;99437.44;5032244;28;20030;-75
2022/08/14 10:49:25;;;;;;;0.47;0.40;;;;;;;55.71;3.88;99417.31;5028547;28;20487;-74
2022/08/14 10:52:05;;;;;;;0.30;0.30;;;;;;;56.48;3.86;99430.66;5033116;28;20032;-74
2022/08/14 10:54:50;;;;;;;0.40;0.32;;;;;;;57.07;4.26;99422.63;5013358;28;20396;-76
2022/08/14 10:57:23;;;;;;;0.45;0.30;;;;;;;57.11;3.73;99417.06;5037636;28;20028;-74
2022/08/14 10:59:57;;;;;;;0.25;0.20;;;;;;;56.87;3.76;99418.16;5007766;28;20047;-75
2022/08/14 11:02:35;;;;;;;0.77;0.45;;;;;;;56.13;3.83;99413.28;5015433;28;20094;-76
2022/08/14 11:05:17;;;;;;;0.40;0.30;;;;;;;57.45;3.80;99415.13;5030151;28;20025;-75
2022/08/14 11:07:54;;;;;;;0.20;0.20;;;;;;;60.21;2.63;99412.09;5012666;28;20017;-76
2022/08/14 11:10:24;;;;;;;0.20;0.20;;;;;;;60.84;1.90;99408.47;5035678;28;20064;-75
2022/08/14 11:12:54;;;;;;;0.50;0.50;;;;;;;61.48;1.83;99403.97;5035777;28;20061;-74
2022/08/14 11:15:27;;;;;;;0.30;0.30;;;;;;;62.59;1.66;99403.16;5017167;28;20048;-75
2022/08/14 11:17:54;;;;;;;0.20;0.20;;;;;;;62.52;1.58;99407.22;5033162;28;20021;-76
2022/08/14 11:20:25;;;;;;;0.82;0.50;;;;;;;62.23;1.37;99402.78;5034322;28;20029;-74
2022/08/14 11:22:53;;;;;;;0.90;0.30;;;;;;;62.56;1.43;99405.25;5029788;28;20030;-74
2022/08/14 11:25:24;;;;;;;1.48;0.47;;;;;;;62.09;1.04;99406.53;5030811;28;20032;-75
2022/08/14 11:27:53;;;;;;;1.20;0.30;;;;;;;60.32;1.81;99384.78;5033094;28;20045;-76
2022/08/14 11:30:21;;;;;;;0.20;0.20;;;;;;;58.44;2.23;99380.13;5032868;28;20052;-75
2022/08/14 11:32:49;;;;;;;0.32;0.28;;;;;;;57.49;2.46;99370.59;5029731;28;20039;-75
2022/08/14 11:35:20;;;;;;;0.25;0.25;;;;;;;57.70;2.54;99372.81;5032478;28;20120;-74
2022/08/14 11:37:53;;;;;;;0.73;0.30;;;;;;;58.30;2.75;99366.00;5025047;28;20030;-76
2022/08/14 11:40:20;;;;;;;0.68;0.40;;;;;;;59.98;1.68;99375.34;5031928;28;20026;-76
2022/08/14 11:42:48;;;;;;;0.70;0.45;;;;;;;61.80;1.35;99380.56;5037215;28;20033;-75
2022/08/14 11:45:15;;;;;;;0.55;0.30;;;;;;;63.16;0.79;99382.28;5024311;28;20037;-74
2022/08/14 11:47:41;;;;;;;0.40;0.40;;;;;;;64.84;0.42;99381.50;5021394;28;20025;-75
2022/08/14 11:50:16;;;;;;;1.75;0.70;;;;;;;65.64;0.00;99374.97;5017613;28;20037;-75
2022/08/14 11:52:43;;;;;;;0.47;0.30;;;;;;;65.31;0.00;99373.69;5017469;28;20023;-73
2022/08/14 11:55:11;;;;;;;0.35;0.32;;;;;;;64.69;0.11;99359.38;5016197;28;20051;-73
2022/08/14 11:57:38;;;;;;;0.30;0.30;;;;;;;65.58;0.22;99380.63;5031339;28;20037;-74
2022/08/14 12:00:09;;;;;;;1.95;0.40;;;;;;;64.57;0.30;99367.75;4993756;28;20033;-75
2022/08/14 12:02:35;;;;;;;0.30;0.30;;;;;;;62.88;0.86;99369.81;5032060;28;20027;-74
2022/08/14 12:05:01;;;;;;;0.68;0.45;;;;;;;61.67;0.71;99361.38;5018159;28;20029;-74
2022/08/14 12:07:27;;;;;;;0.30;0.30;;;;;;;59.58;1.52;99350.72;5014024;28;20029;-75
2022/08/14 12:09:55;;;;;;;0.40;0.40;;;;;;;58.06;1.91;99341.53;5019525;28;20036;-75
2022/08/14 12:12:23;;;;;;;0.40;0.40;;;;;;;57.95;2.33;99343.00;5032826;28;20049;-75
2022/08/14 12:14:58;;;;;;;0.40;0.40;;;;;;;58.92;1.59;99340.66;5030549;28;20029;-74
2022/08/14 12:17:26;;;;;;;1.85;0.50;;;;;;;59.52;1.43;99341.53;5036933;28;20029;-74
2022/08/14 12:19:57;;;;;;;0.50;0.40;;;;;;;60.64;1.55;99349.75;5032709;28;20025;-76
2022/08/14 12:22:35;;;;;;;0.55;0.30;;;;;;;61.50;1.02;99347.16;5032368;28;20061;-75
2022/08/14 12:25:03;;;;;;;0.47;0.30;;;;;;;61.82;0.68;99348.16;5030741;28;20031;-76
2022/08/14 12:27:41;;;;;;;0.52;0.30;;;;;;;60.89;1.14;99339.38;5035795;28;20029;-74
2022/08/14 12:30:08;;;;;;;1.08;0.50;;;;;;;59.47;1.50;99325.78;5033881;28;20021;-75
2022/08/14 12:32:40;;;;;;;0.43;0.40;;;;;;;57.32;2.17;99319.50;5031651;28;20025;-76